»·PEaware :: N7CM 3W7-KBLI

N7CM :: 3W7-KBLI

FLIGHT INFORMATION

Flight Status: Arrived
Operator: Privately registered:
United States
More flights under this callsign
Pilot: Dominic B. (18944)
Aircraft: SOCATA TBM-850
(TBM8)
More flights by this aircraft type
Origin: 3W7 Grand Coulee Dam
United States
Destination: KBLI Bellingham Intl
United States
More flights between these airports :: More routes between these airports
Route: TWISP J52 SHUKA HUH
File this flight plan on PilotEdge
Remarks:
Altitude:
(Current/Filed)
26,000ft
Speed:
(Current/Filed)
316kts
Departed: 16-Oct-23 05:54 PM
Arrived: 16-Oct-23 06:44 PM
Distance/Time
Traveled:
147nm/0:50
Distance/Time
To Go:
Arrived

Flight Plot

Page will automatically refresh every two minutes.

Flight plan parsing failed; only flown route is shown


Map Options




Map Legend


Flown Route
Filed Route
Departure Airport
Arrival Airport
Navaid (VOR, NDB)
Fix

Horizontal Profiles

Position Reports

Time Latitude Longitude Heading Altitude Ground
Speed
16-Oct-23 17:46 47.920427 -119.083622 323 1608ft 0kts
16-Oct-23 17:47 47.920427 -119.083622 323 1608ft 0kts
16-Oct-23 17:48 47.920427 -119.083622 323 1608ft 0kts
16-Oct-23 17:49 47.920427 -119.083622 323 1608ft 0kts
16-Oct-23 17:50 47.920427 -119.083622 323 1608ft 0kts
16-Oct-23 17:51 47.920701 -119.084566 328 1610ft 0kts
16-Oct-23 17:52 47.922335 -119.082483 51 1607ft 15kts
16-Oct-23 17:53 47.925548 -119.076428 343 1610ft 4kts
16-Oct-23 17:54 47.918577 -119.089690 229 1685ft 108kts
16-Oct-23 17:55 47.922427 -119.135179 310 3196ft 154kts
16-Oct-23 17:56 47.955249 -119.178284 302 5190ft 154kts
16-Oct-23 17:57 47.977467 -119.232731 292 7399ft 153kts
16-Oct-23 17:58 47.998110 -119.288667 291 9506ft 155kts
16-Oct-23 17:59 48.019263 -119.346332 290 11374ft 159kts
16-Oct-23 18:00 48.040796 -119.405142 289 13172ft 163kts
16-Oct-23 18:01 48.062787 -119.465908 288 14918ft 168kts
16-Oct-23 18:02 48.085363 -119.527884 287 16866ft 171kts
16-Oct-23 18:03 48.108724 -119.591851 287 18799ft 177kts
16-Oct-23 18:04 48.132507 -119.657431 285 20623ft 180kts
16-Oct-23 18:05 48.156559 -119.723961 283 22494ft 183kts
16-Oct-23 18:05 48.176935 -119.780250 283 24018ft 185kts
16-Oct-23 18:07 48.205979 -119.860817 283 25803ft 195kts
16-Oct-23 18:08 48.235865 -119.943607 287 25975ft 251kts
16-Oct-23 18:09 48.270904 -120.039952 285 25939ft 268kts
16-Oct-23 18:09 48.295045 -120.126409 279 25944ft 270kts
16-Oct-23 18:10 48.322667 -120.232373 281 25971ft 276kts
16-Oct-23 18:12 48.357137 -120.357474 281 25953ft 277kts
16-Oct-23 18:13 48.386529 -120.464762 281 25912ft 275kts
16-Oct-23 18:14 48.415194 -120.570189 281 25970ft 272kts
16-Oct-23 18:14 48.438994 -120.658378 281 26005ft 274kts
16-Oct-23 18:15 48.467851 -120.765178 281 25996ft 275kts
16-Oct-23 18:16 48.496765 -120.872860 280 26058ft 280kts
16-Oct-23 18:18 48.531135 -121.001436 281 25585ft 290kts
16-Oct-23 18:18 48.556681 -121.097095 281 24748ft 299kts
16-Oct-23 18:19 48.588325 -121.215486 281 23247ft 309kts
16-Oct-23 18:20 48.619976 -121.334712 282 21531ft 308kts
16-Oct-23 18:21 48.651895 -121.455937 282 19989ft 308kts
16-Oct-23 18:22 48.683110 -121.575610 282 18449ft 306kts
16-Oct-23 18:23 48.713824 -121.694295 283 16652ft 296kts
16-Oct-23 18:24 48.742848 -121.809349 283 14834ft 288kts
16-Oct-23 18:25 48.771437 -121.920996 283 13389ft 279kts
16-Oct-23 18:26 48.797471 -122.023763 282 13009ft 248kts
16-Oct-23 18:27 48.821965 -122.120947 283 12756ft 254kts
16-Oct-23 18:28 48.850177 -122.224748 286 11155ft 272kts
16-Oct-23 18:29 48.877888 -122.327064 286 9417ft 254kts
16-Oct-23 18:30 48.904035 -122.424394 287 7370ft 244kts
16-Oct-23 18:31 48.929059 -122.517863 287 5526ft 231kts
16-Oct-23 18:32 48.969390 -122.559673 22 3758ft 201kts
16-Oct-23 18:33 49.016134 -122.538239 346 2145ft 157kts
16-Oct-23 18:34 49.065533 -122.539784 345 2045ft 196kts
16-Oct-23 18:35 49.074450 -122.595733 219 2008ft 150kts
16-Oct-23 18:36 49.038454 -122.580245 141 2007ft 158kts
16-Oct-23 18:37 49.004131 -122.539119 175 2000ft 153kts
16-Oct-23 18:38 48.962395 -122.537849 188 1993ft 148kts
16-Oct-23 18:39 48.920389 -122.537996 186 2006ft 150kts
16-Oct-23 18:40 48.878131 -122.537897 185 1739ft 154kts
16-Oct-23 18:41 48.839901 -122.537854 184 922ft 121kts
16-Oct-23 18:42 48.808334 -122.537610 178 319ft 93kts
16-Oct-23 18:43 48.790653 -122.537530 174 146ft 18kts
16-Oct-23 18:44 48.783952 -122.537357 157 145ft 15kts
16-Oct-23 18:45 48.788300 -122.535769 0 146ft 26kts
16-Oct-23 18:46 48.790182 -122.534234 106 146ft 0kts
16-Oct-23 18:47 48.790182 -122.534234 106 160ft 0kts

Navigation Log

Ident Type
Flight plan parsing failed, navigation log unavailable